Time;durP1;ratioP1;P1;durP2;ratioP2;P2;SDS_P1;SDS_P2;PMS_P1;PMS_P2;Temp;Humidity;BMP_temperature;BMP_pressure;BME280_temperature;BME280_humidity;BME280_pressure;Samples;Min_cycle;Max_cycle;Signal;HPM_P1;HPM_P2
2022/10/25 00:01:26;;;;;;;32.50;15.02;;;11.50;99.90;;;;;;5047313;28;20048;-71
2022/10/25 00:03:52;;;;;;;37.35;17.23;;;11.70;99.90;;;;;;5043847;28;20500;-71
2022/10/25 00:06:18;;;;;;;32.78;14.35;;;11.70;99.90;;;;;;5028556;28;20503;-72
2022/10/25 00:08:43;;;;;;;42.20;19.75;;;11.40;99.90;;;;;;5059206;28;20048;-71
2022/10/25 00:11:17;;;;;;;35.63;17.92;;;11.50;99.90;;;;;;5036275;28;20045;-71
2022/10/25 00:13:43;;;;;;;36.72;17.08;;;11.60;99.90;;;;;;5045903;28;20059;-72
2022/10/25 00:16:17;;;;;;;34.95;16.67;;;11.50;99.90;;;;;;5036798;28;20045;-72
2022/10/25 00:18:43;;;;;;;36.38;15.60;;;11.50;99.90;;;;;;5035923;28;20077;-71
2022/10/25 00:21:09;;;;;;;40.72;19.05;;;11.60;99.90;;;;;;5043296;28;20546;-71
2022/10/25 00:23:34;;;;;;;29.80;14.60;;;11.50;99.90;;;;;;5045918;28;20045;-71
2022/10/25 00:26:06;;;;;;;34.58;14.23;;;11.40;99.90;;;;;;5047035;28;20064;-71
2022/10/25 00:28:32;;;;;;;39.92;16.85;;;11.50;99.90;;;;;;5036580;28;20396;-71
2022/10/25 00:31:03;;;;;;;37.67;17.08;;;11.40;99.90;;;;;;5058910;28;20059;-71
2022/10/25 00:33:30;;;;;;;40.05;17.95;;;11.40;99.90;;;;;;5053237;28;20048;-71
2022/10/25 00:36:01;;;;;;;37.22;17.70;;;11.40;99.90;;;;;;5046672;28;20138;-71
2022/10/25 00:38:27;;;;;;;;;;;11.50;99.90;;;;;;5031474;28;20041;-72
2022/10/25 00:40:53;;;;;;;35.38;16.10;;;11.50;99.90;;;;;;5062462;28;20264;-71
2022/10/25 00:43:48;;;;;;;37.00;17.52;;;11.50;99.90;;;;;;5061840;28;20443;-71
2022/10/25 00:46:17;;;;;;;38.55;18.73;;;11.50;99.90;;;;;;5037445;28;20136;-71
2022/10/25 00:48:53;;;;;;;39.30;17.48;;;11.40;99.90;;;;;;5041950;28;20571;-71
2022/10/25 00:51:23;;;;;;;42.22;18.42;;;11.40;99.90;;;;;;5058875;28;20067;-71
2022/10/25 00:53:50;;;;;;;44.63;17.80;;;11.40;99.90;;;;;;5042337;28;20199;-72
2022/10/25 00:56:19;;;;;;;38.70;19.52;;;11.50;99.90;;;;;;5031734;28;20084;-73
2022/10/25 00:58:49;;;;;;;41.45;20.58;;;11.50;99.90;;;;;;5033284;28;20056;-72
2022/10/25 01:01:15;;;;;;;46.67;21.20;;;11.60;99.90;;;;;;5046661;28;20057;-71
2022/10/25 01:03:43;;;;;;;51.28;21.85;;;11.50;99.90;;;;;;5045481;28;20055;-71
2022/10/25 01:06:17;;;;;;;46.25;20.48;;;11.50;99.90;;;;;;5060092;28;20128;-72
2022/10/25 01:08:44;;;;;;;49.72;20.25;;;11.60;99.90;;;;;;5060513;28;20102;-71
2022/10/25 01:11:10;;;;;;;46.95;21.38;;;11.60;99.90;;;;;;5048121;28;20517;-71
2022/10/25 01:13:36;;;;;;;45.50;21.20;;;11.70;99.90;;;;;;5043754;28;20060;-71
2022/10/25 01:16:10;;;;;;;50.65;20.83;;;11.70;99.90;;;;;;5047609;28;20045;-72
2022/10/25 01:18:42;;;;;;;45.53;20.00;;;11.80;99.90;;;;;;5037098;28;20048;-72
2022/10/25 01:21:32;;;;;;;42.47;20.25;;;11.90;99.90;;;;;;5058662;28;20400;-71
2022/10/25 01:24:24;;;;;;;42.50;21.00;;;11.90;99.90;;;;;;5070478;28;20056;-71
2022/10/25 01:27:08;;;;;;;41.65;20.05;;;11.90;99.90;;;;;;5036610;28;20053;-72
2022/10/25 01:30:12;;;;;;;45.33;19.98;;;11.90;99.90;;;;;;5046111;28;20468;-72
2022/10/25 01:32:46;;;;;;;50.88;21.30;;;11.90;99.90;;;;;;5048699;28;20048;-70
2022/10/25 01:35:22;;;;;;;45.13;20.58;;;11.90;99.90;;;;;;5050238;28;20590;-72
2022/10/25 01:38:13;;;;;;;47.00;20.50;;;12.00;99.90;;;;;;5034417;28;20439;-71
2022/10/25 01:40:59;;;;;;;50.10;20.67;;;12.00;99.90;;;;;;5046323;28;20061;-71
2022/10/25 01:43:33;;;;;;;44.53;19.95;;;12.00;99.90;;;;;;5036878;28;20052;-72
2022/10/25 01:46:04;;;;;;;47.63;19.83;;;12.00;99.90;;;;;;5049344;28;20051;-72
2022/10/25 01:48:42;;;;;;;45.88;20.52;;;12.00;99.90;;;;;;5033356;28;20528;-72
2022/10/25 01:51:14;;;;;;;42.88;20.77;;;12.00;99.90;;;;;;5049278;28;20068;-72
2022/10/25 01:53:44;;;;;;;42.42;19.17;;;12.10;99.90;;;;;;5048578;28;20508;-71
2022/10/25 01:56:22;;;;;;;38.28;17.05;;;12.00;99.90;;;;;;5041550;28;20080;-72
2022/10/25 01:59:16;;;;;;;38.67;17.10;;;12.00;99.90;;;;;;5045392;28;20111;-72
2022/10/25 02:02:10;;;;;;;34.53;16.80;;;12.20;99.90;;;;;;5039876;28;20057;-71
2022/10/25 02:04:46;;;;;;;36.67;15.93;;;12.20;99.90;;;;;;5049339;28;20052;-71
2022/10/25 02:07:25;;;;;;;34.53;15.88;;;12.10;99.90;;;;;;5048770;28;20048;-72
2022/10/25 02:10:01;;;;;;;32.17;15.55;;;12.30;99.90;;;;;;5057642;28;20115;-71
2022/10/25 02:12:41;;;;;;;32.95;15.40;;;12.20;99.90;;;;;;5047163;28;20064;-72
2022/10/25 02:15:17;;;;;;;35.20;16.00;;;12.50;99.90;;;;;;5048957;28;20056;-72
2022/10/25 02:17:48;;;;;;;26.80;15.27;;;12.30;99.90;;;;;;5032709;28;20411;-72
2022/10/25 02:20:18;;;;;;;33.88;16.33;;;12.30;99.90;;;;;;5052483;28;20725;-71
2022/10/25 02:22:45;;;;;;;32.33;16.90;;;12.20;99.90;;;;;;5068116;28;20045;-72
2022/10/25 02:25:11;;;;;;;32.80;16.15;;;12.30;99.90;;;;;;5050646;28;20044;-72
2022/10/25 02:27:38;;;;;;;30.20;15.35;;;12.20;99.90;;;;;;5032233;28;20507;-72
2022/10/25 02:30:05;;;;;;;32.95;15.35;;;12.30;99.90;;;;;;5045399;28;20136;-71
2022/10/25 02:32:31;;;;;;;29.42;15.52;;;12.30;99.90;;;;;;5047499;28;20416;-72
2022/10/25 02:34:57;;;;;;;29.67;15.45;;;12.30;99.90;;;;;;5028606;28;20057;-72
2022/10/25 02:37:22;;;;;;;40.03;16.67;;;12.30;99.90;;;;;;5036978;28;20044;-71
2022/10/25 02:39:50;;;;;;;33.65;15.85;;;12.20;99.90;;;;;;5068274;28;20760;-71
2022/10/25 02:42:16;;;;;;;28.48;15.40;;;12.30;99.90;;;;;;5069074;28;20032;-71
2022/10/25 02:44:41;;;;;;;30.52;15.75;;;12.40;99.90;;;;;;5051460;28;20508;-71
2022/10/25 02:47:07;;;;;;;30.75;16.13;;;12.40;99.90;;;;;;5042547;28;20144;-71
2022/10/25 02:49:33;;;;;;;32.10;15.82;;;12.50;99.90;;;;;;5069396;28;20052;-72
2022/10/25 02:51:58;;;;;;;32.80;16.95;;;12.40;99.90;;;;;;5067607;28;20460;-71
2022/10/25 02:54:24;;;;;;;30.50;16.00;;;12.50;99.90;;;;;;5067532;28;20443;-72
2022/10/25 02:56:51;;;;;;;32.88;16.50;;;12.40;99.90;;;;;;5035961;28;20113;-71
2022/10/25 02:59:18;;;;;;;35.08;15.93;;;12.50;99.90;;;;;;5050808;28;20041;-71
2022/10/25 03:01:44;;;;;;;30.30;15.20;;;12.50;99.90;;;;;;5047192;28;20132;-71
2022/10/25 03:04:10;;;;;;;26.10;12.82;;;12.50;99.90;;;;;;5024166;28;20132;-71
2022/10/25 03:06:35;;;;;;;27.48;12.68;;;12.40;99.90;;;;;;5025594;28;20436;-71
2022/10/25 03:09:02;;;;;;;29.27;12.90;;;12.50;99.90;;;;;;5044356;28;20052;-71
2022/10/25 03:11:27;;;;;;;33.13;12.93;;;12.50;99.90;;;;;;5058696;28;20102;-72
2022/10/25 03:13:53;;;;;;;31.85;13.77;;;12.40;99.90;;;;;;5066898;28;20157;-71
2022/10/25 03:16:19;;;;;;;29.55;13.68;;;12.40;99.90;;;;;;5023429;28;20131;-72
2022/10/25 03:18:44;;;;;;;40.53;16.00;;;12.30;99.90;;;;;;5037928;28;20077;-71
2022/10/25 03:21:10;;;;;;;31.55;14.77;;;12.20;99.90;;;;;;5024238;28;20156;-72
2022/10/25 03:23:36;;;;;;;39.78;15.38;;;12.30;99.90;;;;;;5046083;28;20094;-72
2022/10/25 03:26:01;;;;;;;35.75;15.18;;;12.30;99.90;;;;;;5049167;28;20110;-71
2022/10/25 03:28:28;;;;;;;37.97;16.20;;;12.40;99.90;;;;;;5032680;28;20048;-72
2022/10/25 03:30:55;;;;;;;31.70;15.57;;;12.30;99.90;;;;;;5044688;28;20432;-71
2022/10/25 03:33:21;;;;;;;38.40;15.88;;;12.40;99.90;;;;;;5045139;28;20068;-72
2022/10/25 03:35:53;;;;;;;37.78;15.32;;;12.30;99.90;;;;;;5027345;28;20053;-71
2022/10/25 03:38:20;;;;;;;37.88;15.98;;;12.30;99.90;;;;;;5033405;28;20040;-72
2022/10/25 03:40:45;;;;;;;33.33;15.00;;;12.30;99.90;;;;;;5060834;28;20052;-72
2022/10/25 03:43:11;;;;;;;38.35;16.00;;;12.30;99.90;;;;;;5062477;28;20577;-72
2022/10/25 03:45:37;;;;;;;36.40;16.10;;;12.30;99.90;;;;;;5047084;28;20519;-72
2022/10/25 03:48:03;;;;;;;36.95;15.45;;;12.30;99.90;;;;;;5030602;28;20136;-72
2022/10/25 03:50:28;;;;;;;36.72;15.80;;;12.20;99.90;;;;;;5047485;28;20052;-71
2022/10/25 03:52:54;;;;;;;34.17;14.75;;;12.20;99.90;;;;;;5047266;28;20408;-72
2022/10/25 03:55:20;;;;;;;38.45;14.90;;;12.20;99.90;;;;;;5047374;28;20044;-72
2022/10/25 03:57:45;;;;;;;36.63;14.68;;;12.30;99.90;;;;;;5048207;28;20090;-72
2022/10/25 04:00:12;;;;;;;40.83;14.05;;;12.20;99.90;;;;;;5056164;28;20048;-72
2022/10/25 04:02:38;;;;;;;43.50;15.77;;;12.10;99.90;;;;;;5047890;28;20041;-72
2022/10/25 04:05:04;;;;;;;47.03;14.73;;;12.20;99.90;;;;;;5048213;28;20606;-72
2022/10/25 04:07:30;;;;;;;44.13;15.77;;;12.10;99.90;;;;;;5048503;28;20044;-73
2022/10/25 04:09:55;;;;;;;35.00;15.25;;;12.00;99.90;;;;;;5057139;28;20052;-72
2022/10/25 04:12:21;;;;;;;46.72;15.88;;;12.00;99.90;;;;;;5046002;28;20064;-71
2022/10/25 04:14:46;;;;;;;42.40;14.98;;;12.00;99.90;;;;;;5026979;28;20045;-72
2022/10/25 04:17:12;;;;;;;46.00;16.98;;;12.20;99.90;;;;;;5004121;28;20053;-72
2022/10/25 04:19:38;;;;;;;40.88;15.95;;;12.10;99.90;;;;;;5053733;28;20049;-72
2022/10/25 04:22:03;;;;;;;42.92;15.88;;;12.20;99.90;;;;;;5025497;28;20060;-74
2022/10/25 04:24:29;;;;;;;44.65;15.98;;;12.10;99.90;;;;;;5039764;28;20128;-72
2022/10/25 04:26:55;;;;;;;38.78;15.50;;;12.20;99.90;;;;;;5031168;28;20083;-72
2022/10/25 04:29:21;;;;;;;45.80;15.07;;;12.00;99.90;;;;;;5046721;28;20045;-72
2022/10/25 04:31:46;;;;;;;47.45;14.60;;;12.10;99.90;;;;;;5045996;28;20041;-72
2022/10/25 04:34:12;;;;;;;36.13;14.73;;;12.10;99.90;;;;;;5024480;28;20107;-72
2022/10/25 04:36:38;;;;;;;48.80;15.18;;;12.00;99.90;;;;;;5036166;28;20059;-72
2022/10/25 04:39:04;;;;;;;46.50;15.85;;;11.90;99.90;;;;;;5048546;28;20048;-72
2022/10/25 04:41:30;;;;;;;38.28;14.80;;;12.00;99.90;;;;;;5063218;28;20412;-72
2022/10/25 04:43:56;;;;;;;45.90;15.30;;;12.10;99.90;;;;;;5038215;28;20055;-72
2022/10/25 04:46:21;;;;;;;38.38;16.20;;;12.00;99.90;;;;;;5036134;28;20524;-73
2022/10/25 04:48:47;;;;;;;52.83;15.98;;;12.10;99.90;;;;;;5042768;28;20045;-72
2022/10/25 04:51:13;;;;;;;39.80;14.35;;;12.00;99.90;;;;;;5026544;28;20413;-72
2022/10/25 04:53:39;;;;;;;51.60;16.30;;;11.90;99.90;;;;;;5035296;28;20500;-72
2022/10/25 04:56:07;;;;;;;47.63;14.70;;;11.80;99.90;;;;;;5045307;28;20037;-73
2022/10/25 04:58:34;;;;;;;44.40;14.10;;;11.80;99.90;;;;;;5040839;28;20080;-72
2022/10/25 05:01:05;;;;;;;46.38;14.18;;;11.80;99.90;;;;;;5050270;28;20056;-72
2022/10/25 05:03:31;;;;;;;;;;;11.80;99.90;;;;;;5050025;28;20044;-72
2022/10/25 05:06:15;;;;;;;39.72;14.10;;;11.70;99.90;;;;;;5050112;28;20340;-71
2022/10/25 05:08:43;;;;;;;42.83;15.90;;;11.80;99.90;;;;;;5041166;28;20077;-72
2022/10/25 05:11:10;;;;;;;37.10;13.07;;;11.70;99.90;;;;;;5039211;28;20464;-72
2022/10/25 05:13:37;;;;;;;42.22;13.30;;;11.70;99.90;;;;;;5049470;28;20056;-72
2022/10/25 05:16:03;;;;;;;44.13;14.52;;;11.70;99.90;;;;;;5051663;28;20049;-72
2022/10/25 05:18:33;;;;;;;46.72;14.05;;;11.70;99.90;;;;;;5033853;28;20057;-72
2022/10/25 05:21:04;;;;;;;49.47;15.00;;;11.70;99.90;;;;;;5059623;28;20510;-72
2022/10/25 05:23:31;;;;;;;50.00;13.40;;;11.60;99.90;;;;;;5069140;28;20056;-72
2022/10/25 05:26:12;;;;;;;45.42;14.38;;;11.50;99.90;;;;;;5070298;28;20083;-72
2022/10/25 05:28:40;;;;;;;51.20;13.88;;;11.60;99.90;;;;;;5062906;28;20542;-72
2022/10/25 05:31:07;;;;;;;44.28;14.85;;;11.60;99.90;;;;;;5071280;28;20043;-72
2022/10/25 05:33:33;;;;;;;48.80;16.40;;;11.70;99.90;;;;;;5070063;28;20052;-72
2022/10/25 05:36:03;;;;;;;46.42;16.42;;;11.70;99.90;;;;;;5070934;28;20040;-72
2022/10/25 05:38:29;;;;;;;46.00;16.08;;;11.80;99.90;;;;;;5035581;28;20086;-72
2022/10/25 05:40:56;;;;;;;45.33;16.92;;;11.80;99.90;;;;;;5031171;28;20401;-72
2022/10/25 05:43:22;;;;;;;50.10;16.67;;;11.70;99.90;;;;;;5049542;28;20056;-72
2022/10/25 05:45:48;;;;;;;58.83;17.25;;;11.60;99.90;;;;;;5036594;28;20064;-72
2022/10/25 05:48:13;;;;;;;47.97;17.75;;;11.60;99.90;;;;;;5026192;28;20062;-72
2022/10/25 05:50:40;;;;;;;51.92;18.80;;;11.80;99.90;;;;;;5045193;28;20049;-72
2022/10/25 05:53:05;;;;;;;55.78;19.60;;;11.70;99.90;;;;;;5039687;28;20044;-72
2022/10/25 05:55:32;;;;;;;55.25;19.08;;;11.80;99.90;;;;;;5037282;28;20041;-72
2022/10/25 05:57:58;;;;;;;50.60;20.98;;;11.90;99.90;;;;;;5025354;28;20049;-72
2022/10/25 06:00:24;;;;;;;61.22;20.77;;;12.00;99.90;;;;;;5043945;28;20037;-72
2022/10/25 06:02:50;;;;;;;57.95;21.42;;;11.80;99.90;;;;;;5044839;28;20056;-72
2022/10/25 06:05:15;;;;;;;61.40;21.63;;;12.00;99.90;;;;;;5050598;28;20507;-72
2022/10/25 06:07:41;;;;;;;54.85;20.92;;;11.90;99.90;;;;;;5031955;28;20554;-72
2022/10/25 06:10:07;;;;;;;65.00;20.33;;;11.90;99.90;;;;;;5022045;28;20061;-72
2022/10/25 06:12:33;;;;;;;55.28;19.92;;;11.90;99.90;;;;;;5044864;28;20378;-72
2022/10/25 06:14:58;;;;;;;52.60;19.90;;;11.80;99.90;;;;;;5043585;28;20067;-72
2022/10/25 06:17:24;;;;;;;67.93;19.75;;;11.90;99.90;;;;;;5023212;28;20503;-72
2022/10/25 06:19:49;;;;;;;53.35;19.33;;;11.90;99.90;;;;;;5059525;28;20106;-72
2022/10/25 06:22:15;;;;;;;46.33;18.45;;;11.90;99.90;;;;;;5037957;28;20080;-72
2022/10/25 06:24:41;;;;;;;52.97;18.92;;;11.90;99.90;;;;;;5069949;28;20052;-72
2022/10/25 06:27:06;;;;;;;50.72;18.38;;;11.80;99.90;;;;;;5033746;28;20079;-72
2022/10/25 06:29:32;;;;;;;45.20;16.90;;;11.90;99.90;;;;;;5048747;28;20048;-72
2022/10/25 06:31:58;;;;;;;43.83;16.20;;;11.90;99.90;;;;;;5049881;28;20099;-72
2022/10/25 06:34:24;;;;;;;47.05;16.27;;;11.90;99.90;;;;;;5045298;28;20050;-72
2022/10/25 06:36:49;;;;;;;50.40;16.85;;;12.00;99.90;;;;;;4998186;28;20132;-72
2022/10/25 06:39:15;;;;;;;37.00;15.32;;;11.90;99.90;;;;;;5036255;28;20116;-72
2022/10/25 06:41:40;;;;;;;47.17;15.23;;;11.90;99.90;;;;;;5037293;28;20052;-72
2022/10/25 06:44:06;;;;;;;38.80;14.25;;;11.90;99.90;;;;;;5039050;28;20052;-72
2022/10/25 06:46:34;;;;;;;40.72;14.13;;;11.90;99.90;;;;;;5034150;28;20041;-73
2022/10/25 06:49:04;;;;;;;38.75;14.27;;;11.80;99.90;;;;;;5045943;28;20052;-72
2022/10/25 06:51:31;;;;;;;43.90;14.00;;;11.90;99.90;;;;;;5047889;28;20104;-72
2022/10/25 06:53:59;;;;;;;48.22;14.13;;;11.90;99.90;;;;;;5060396;28;20060;-72
2022/10/25 06:56:26;;;;;;;38.00;13.38;;;11.90;99.90;;;;;;5055758;28;20044;-72
2022/10/25 06:58:52;;;;;;;39.47;13.50;;;11.90;99.90;;;;;;5065330;28;20072;-72
2022/10/25 07:01:19;;;;;;;43.55;13.02;;;11.90;99.90;;;;;;5068236;28;20105;-72
2022/10/25 07:03:46;;;;;;;34.33;12.27;;;11.80;99.90;;;;;;5050451;28;20059;-72
2022/10/25 07:06:17;;;;;;;35.25;12.23;;;11.80;99.90;;;;;;5041763;28;20060;-73
2022/10/25 07:08:44;;;;;;;;;;;11.90;99.90;;;;;;5043076;28;20045;-72
2022/10/25 07:11:15;;;;;;;38.50;11.15;;;11.90;99.90;;;;;;5036910;28;19998;-72
2022/10/25 07:13:41;;;;;;;33.92;11.45;;;11.90;99.90;;;;;;5046956;28;20056;-72
2022/10/25 07:16:09;;;;;;;36.08;11.20;;;11.80;99.90;;;;;;5034877;28;20041;-73
2022/10/25 07:18:35;;;;;;;30.00;10.73;;;11.90;99.90;;;;;;5034244;28;20124;-72
2022/10/25 07:21:04;;;;;;;37.35;10.15;;;12.00;99.90;;;;;;5017109;28;20041;-72
2022/10/25 07:23:30;;;;;;;31.20;9.55;;;12.10;99.90;;;;;;5046929;28;20624;-72
2022/10/25 07:25:57;;;;;;;28.95;9.50;;;12.10;99.90;;;;;;5038263;28;20049;-72
2022/10/25 07:28:23;;;;;;;29.65;8.73;;;12.10;99.90;;;;;;5034560;28;20114;-72
2022/10/25 07:30:49;;;;;;;36.58;9.65;;;12.10;99.90;;;;;;5057957;28;20048;-72
2022/10/25 07:33:16;;;;;;;25.73;8.85;;;12.00;99.90;;;;;;5056669;28;20113;-73
2022/10/25 07:35:46;;;;;;;28.63;9.43;;;12.20;99.90;;;;;;5059621;28;20056;-71
2022/10/25 07:38:12;;;;;;;32.97;8.50;;;12.10;99.90;;;;;;5023325;28;20033;-71
2022/10/25 07:40:39;;;;;;;31.88;8.77;;;12.30;99.90;;;;;;5056092;28;20056;-71
2022/10/25 07:43:05;;;;;;;31.42;8.50;;;12.20;99.90;;;;;;5056476;28;20045;-71
2022/10/25 07:45:31;;;;;;;26.55;8.38;;;12.20;99.90;;;;;;5057294;28;20097;-71
2022/10/25 07:47:56;;;;;;;31.33;8.02;;;12.30;99.90;;;;;;5042444;28;20053;-71
2022/10/25 07:50:22;;;;;;;31.85;8.07;;;12.40;99.90;;;;;;5055668;28;20063;-72
2022/10/25 07:52:48;;;;;;;24.63;7.43;;;12.40;99.90;;;;;;5057791;28;20045;-70
2022/10/25 07:55:14;;;;;;;29.02;7.50;;;12.50;99.90;;;;;;5056919;28;20056;-71
2022/10/25 07:57:39;;;;;;;27.98;8.15;;;12.60;99.90;;;;;;5038847;28;20148;-71
2022/10/25 08:00:07;;;;;;;24.63;7.85;;;12.60;99.90;;;;;;5057126;28;20048;-71
2022/10/25 08:02:33;;;;;;;22.75;7.53;;;12.60;99.90;;;;;;5066481;28;20430;-71
2022/10/25 08:04:59;;;;;;;29.27;6.90;;;12.60;99.90;;;;;;5067044;28;20052;-71
2022/10/25 08:07:25;;;;;;;22.35;7.20;;;12.70;99.90;;;;;;5027354;28;20063;-71
2022/10/25 08:09:50;;;;;;;28.70;7.85;;;12.70;99.90;;;;;;5054220;28;20067;-71
2022/10/25 08:12:16;;;;;;;20.80;7.00;;;12.80;99.90;;;;;;5038315;28;20469;-72
2022/10/25 08:14:42;;;;;;;31.63;8.05;;;12.70;99.90;;;;;;5059556;28;20084;-72
2022/10/25 08:17:07;;;;;;;24.92;7.57;;;12.70;99.90;;;;;;5030980;28;20492;-72
2022/10/25 08:19:33;;;;;;;22.15;7.38;;;12.80;99.90;;;;;;5052033;28;20059;-72
2022/10/25 08:21:59;;;;;;;26.40;7.85;;;12.90;99.90;;;;;;5018634;28;20091;-71
2022/10/25 08:24:25;;;;;;;25.15;7.88;;;12.90;99.90;;;;;;5038744;28;20052;-71
2022/10/25 08:26:50;;;;;;;23.30;7.80;;;12.90;99.90;;;;;;5035536;28;20092;-71
2022/10/25 08:29:16;;;;;;;28.92;7.50;;;13.00;99.90;;;;;;5030819;28;20085;-71
2022/10/25 08:31:41;;;;;;;24.92;7.43;;;13.00;99.90;;;;;;5050941;28;20060;-72
2022/10/25 08:34:07;;;;;;;35.95;8.57;;;13.00;99.90;;;;;;5047438;28;20059;-70
2022/10/25 08:36:33;;;;;;;25.38;7.32;;;13.00;99.90;;;;;;5037379;28;20095;-71
2022/10/25 08:38:58;;;;;;;25.55;7.28;;;13.10;99.90;;;;;;5048491;28;20046;-71
2022/10/25 08:41:33;;;;;;;31.55;7.70;;;13.20;99.90;;;;;;5050477;28;20076;-71
2022/10/25 08:44:15;;;;;;;32.53;8.15;;;13.20;99.90;;;;;;5050985;28;20576;-71
2022/10/25 08:46:59;;;;;;;26.90;8.30;;;13.30;99.90;;;;;;5036988;28;20609;-71
2022/10/25 08:49:59;;;;;;;25.13;8.07;;;13.30;99.90;;;;;;5050382;28;20518;-71
2022/10/25 08:52:41;;;;;;;20.67;8.48;;;13.30;99.90;;;;;;5061333;28;20047;-71
2022/10/25 08:55:18;;;;;;;27.77;8.98;;;13.50;99.90;;;;;;5061339;28;20060;-73
2022/10/25 08:57:47;;;;;;;30.17;9.27;;;13.50;99.90;;;;;;5045169;28;20052;-72
2022/10/25 09:00:29;;;;;;;30.77;9.40;;;13.60;99.90;;;;;;5065431;28;20238;-72
2022/10/25 09:02:57;;;;;;;29.20;9.20;;;13.60;99.90;;;;;;5064453;28;20128;-73
2022/10/25 09:05:54;;;;;;;27.73;8.63;;;13.50;99.90;;;;;;5065289;28;20048;-72
2022/10/25 09:08:23;;;;;;;27.10;9.45;;;13.60;99.90;;;;;;5048696;28;20058;-73
2022/10/25 09:10:49;;;;;;;31.95;11.02;;;13.60;99.90;;;;;;5063622;28;20105;-72
2022/10/25 09:13:28;;;;;;;23.90;8.95;;;13.80;99.90;;;;;;5047601;28;20040;-72
2022/10/25 09:16:02;;;;;;;29.85;9.30;;;13.80;99.90;;;;;;5054653;28;20045;-72
2022/10/25 09:18:40;;;;;;;34.63;11.27;;;13.80;99.90;;;;;;5038019;28;20061;-72
2022/10/25 09:21:14;;;;;;;30.85;9.63;;;13.90;99.90;;;;;;5055361;28;20051;-74
2022/10/25 09:23:44;;;;;;;25.02;8.45;;;14.10;99.90;;;;;;5055641;28;20037;-73
2022/10/25 09:26:21;;;;;;;25.38;9.98;;;14.10;99.90;;;;;;5038694;28;20049;-73
2022/10/25 09:29:01;;;;;;;26.52;8.93;;;14.20;99.90;;;;;;5043527;28;20044;-72
2022/10/25 09:31:30;;;;;;;25.45;8.65;;;14.10;99.90;;;;;;5026359;28;20068;-73
2022/10/25 09:33:59;;;;;;;30.05;10.05;;;14.00;99.90;;;;;;5049433;28;20190;-73
2022/10/25 09:36:29;;;;;;;28.35;8.98;;;14.10;99.90;;;;;;5041337;28;20500;-73
2022/10/25 09:38:58;;;;;;;23.08;7.72;;;13.90;99.90;;;;;;5054797;28;20055;-72
2022/10/25 09:41:27;;;;;;;26.90;8.05;;;13.90;99.90;;;;;;5054551;28;20090;-73
2022/10/25 09:44:20;;;;;;;23.88;7.53;;;14.00;99.90;;;;;;5057968;28;20041;-73
2022/10/25 09:46:55;;;;;;;23.98;6.90;;;14.00;99.90;;;;;;5023060;28;20047;-72
2022/10/25 09:49:30;;;;;;;24.33;7.15;;;14.00;99.90;;;;;;5048651;28;20084;-72
2022/10/25 09:52:03;;;;;;;19.48;7.15;;;14.10;99.90;;;;;;5045723;28;20103;-72
2022/10/25 09:55:04;;;;;;;23.67;7.22;;;14.10;99.90;;;;;;5042580;28;20046;-73
2022/10/25 09:57:29;;;;;;;19.98;6.40;;;14.10;99.90;;;;;;5030616;28;20468;-73
2022/10/25 09:59:55;;;;;;;20.15;6.10;;;14.20;99.90;;;;;;5052400;28;20090;-73
2022/10/25 10:02:25;;;;;;;20.58;6.40;;;14.20;99.90;;;;;;5063695;28;20660;-72
2022/10/25 10:04:52;;;;;;;21.95;6.00;;;14.20;99.90;;;;;;5049095;28;20045;-73
2022/10/25 10:07:28;;;;;;;23.05;5.65;;;14.30;99.90;;;;;;5024980;28;20041;-73
2022/10/25 10:09:57;;;;;;;18.90;4.30;;;14.30;99.90;;;;;;5043624;28;20053;-73
2022/10/25 10:12:42;;;;;;;19.88;4.05;;;14.20;99.90;;;;;;5045245;28;20052;-73
2022/10/25 10:15:13;;;;;;;14.20;3.45;;;14.40;99.90;;;;;;5045061;28;20052;-73
2022/10/25 10:17:39;;;;;;;17.40;3.60;;;14.50;99.90;;;;;;5023886;28;20055;-73
2022/10/25 10:20:13;;;;;;;15.68;3.40;;;14.60;99.90;;;;;;5040050;28;20148;-72
2022/10/25 10:22:52;;;;;;;18.00;3.45;;;14.70;99.90;;;;;;5058938;28;20380;-72
2022/10/25 10:25:27;;;;;;;14.75;3.00;;;14.90;99.90;;;;;;5054135;28;20044;-72
2022/10/25 10:27:55;;;;;;;16.98;3.83;;;14.90;99.90;;;;;;5046012;28;20056;-73
2022/10/25 10:30:28;;;;;;;16.60;3.53;;;14.80;99.90;;;;;;5058291;28;20040;-74
2022/10/25 10:33:00;;;;;;;16.42;3.33;;;14.70;99.90;;;;;;5067869;28;20044;-73
2022/10/25 10:35:32;;;;;;;15.05;3.67;;;14.80;99.90;;;;;;5060264;28;20059;-72
2022/10/25 10:38:22;;;;;;;15.55;3.03;;;14.80;99.90;;;;;;5031705;28;20049;-73
2022/10/25 10:40:50;;;;;;;20.45;3.00;;;14.90;99.90;;;;;;5062267;28;20048;-73
2022/10/25 10:43:33;;;;;;;19.10;3.75;;;15.00;99.90;;;;;;5059751;28;20049;-73
2022/10/25 10:46:13;;;;;;;14.60;3.05;;;15.10;99.90;;;;;;5058243;28;20155;-73
2022/10/25 10:48:42;;;;;;;17.47;3.07;;;15.20;99.90;;;;;;5042422;28;20519;-73
2022/10/25 10:51:08;;;;;;;15.73;3.08;;;15.20;99.90;;;;;;5049731;28;20080;-73
2022/10/25 10:53:34;;;;;;;17.85;3.20;;;15.20;99.90;;;;;;5049137;28;20524;-73
2022/10/25 10:56:03;;;;;;;15.45;2.70;;;15.00;99.90;;;;;;5048253;28;20179;-73
2022/10/25 10:58:36;;;;;;;16.92;3.53;;;15.10;99.90;;;;;;5028796;28;20045;-72
2022/10/25 11:01:05;;;;;;;11.60;2.83;;;15.30;99.90;;;;;;5046110;28;20049;-74
2022/10/25 11:03:39;;;;;;;18.25;2.80;;;15.60;99.90;;;;;;5048726;28;20044;-73
2022/10/25 11:06:14;;;;;;;14.50;3.40;;;15.80;99.90;;;;;;5067734;28;20044;-72
2022/10/25 11:08:42;;;;;;;11.80;2.67;;;15.60;99.90;;;;;;5060746;28;20049;-72
2022/10/25 11:11:17;;;;;;;12.38;2.70;;;15.50;99.90;;;;;;5029124;28;20067;-72
2022/10/25 11:13:55;;;;;;;20.98;3.10;;;15.40;99.90;;;;;;5043507;28;20053;-73
2022/10/25 11:16:42;;;;;;;10.13;2.80;;;15.50;99.90;;;;;;5038415;28;20131;-73
2022/10/25 11:19:16;;;;;;;12.32;2.75;;;15.60;99.90;;;;;;5045253;28;20048;-72
2022/10/25 11:21:59;;;;;;;13.65;2.78;;;15.50;99.90;;;;;;5042319;28;20500;-73
2022/10/25 11:24:34;;;;;;;12.32;2.65;;;15.30;99.90;;;;;;5043477;28;20053;-72
2022/10/25 11:27:03;;;;;;;12.45;2.30;;;15.20;99.90;;;;;;5031718;28;20084;-73
2022/10/25 11:29:57;;;;;;;14.13;2.58;;;15.20;99.90;;;;;;5059621;28;20702;-73
2022/10/25 11:33:03;;;;;;;16.70;3.10;;;15.30;99.90;;;;;;5068102;28;20100;-72
2022/10/25 11:35:53;;;;;;;14.25;2.55;;;15.30;99.90;;;;;;5064113;28;20171;-72
2022/10/25 11:38:49;;;;;;;14.50;2.70;;;15.30;99.90;;;;;;5033979;28;20437;-72
2022/10/25 11:41:34;;;;;;;10.45;2.15;;;15.50;99.90;;;;;;5061375;28;20041;-73
2022/10/25 11:44:17;;;;;;;13.30;2.90;;;15.40;99.90;;;;;;5046128;28;20056;-72
2022/10/25 11:46:57;;;;;;;13.82;2.60;;;15.60;99.90;;;;;;5031738;28;20061;-73
2022/10/25 11:49:26;;;;;;;13.23;2.78;;;15.60;99.90;;;;;;5046621;28;20049;-73
2022/10/25 11:52:16;;;;;;;11.65;2.40;;;15.70;99.90;;;;;;5048363;28;20110;-72
2022/10/25 11:55:20;;;;;;;14.68;2.67;;;15.80;99.90;;;;;;5046645;28;20052;-73
2022/10/25 11:58:10;;;;;;;14.18;2.70;;;16.30;99.90;;;;;;5017694;28;20092;-72
2022/10/25 12:01:09;;;;;;;11.02;2.25;;;16.10;99.90;;;;;;5039702;28;21558;-71
2022/10/25 12:03:56;;;;;;;12.15;2.72;;;16.00;99.90;;;;;;5054942;28;20041;-73
2022/10/25 12:06:52;;;;;;;16.60;3.50;;;16.10;99.90;;;;;;5047615;28;20049;-73
2022/10/25 12:09:36;;;;;;;15.70;3.45;;;16.30;99.90;;;;;;5053117;28;20052;-72
2022/10/25 12:12:07;;;;;;;10.15;3.05;;;16.30;99.90;;;;;;5054852;28;20760;-72
2022/10/25 12:14:38;;;;;;;;;;;16.50;99.90;;;;;;5068040;28;20052;-75
2022/10/25 12:17:16;;;;;;;16.65;3.00;;;16.80;99.90;;;;;;5056770;28;19944;-73
2022/10/25 12:19:46;;;;;;;15.18;2.53;;;16.50;99.90;;;;;;5055843;28;20049;-73
2022/10/25 12:22:23;;;;;;;11.75;2.90;;;16.40;99.90;;;;;;5056952;28;20427;-72
2022/10/25 12:25:11;;;;;;;11.23;2.53;;;16.10;99.90;;;;;;5058331;28;20045;-73
2022/10/25 12:27:38;;;;;;;17.67;2.63;;;16.10;99.90;;;;;;5026475;28;20147;-72
2022/10/25 12:30:12;;;;;;;11.25;2.67;;;16.20;99.90;;;;;;5041159;28;20451;-73
2022/10/25 12:32:41;;;;;;;13.95;2.42;;;16.10;99.90;;;;;;5021581;28;20045;-72
2022/10/25 12:35:21;;;;;;;16.48;2.85;;;15.80;99.90;;;;;;5046856;28;20045;-72
2022/10/25 12:37:55;;;;;;;17.33;3.10;;;15.70;99.90;;;;;;5032918;28;20399;-72
2022/10/25 12:40:22;;;;;;;9.57;2.58;;;15.70;99.90;;;;;;5068455;28;20064;-72
2022/10/25 12:42:50;;;;;;;11.70;2.60;;;15.70;99.90;;;;;;5066177;28;20052;-72
2022/10/25 12:45:59;;;;;;;7.82;2.13;;;15.90;99.90;;;;;;5048093;28;20045;-72
2022/10/25 12:48:56;;;;;;;11.07;2.40;;;15.80;99.90;;;;;;5031249;28;20300;-71
2022/10/25 12:51:56;;;;;;;9.80;2.08;;;15.70;99.90;;;;;;5046135;28;20056;-73
2022/10/25 12:54:38;;;;;;;12.27;2.53;;;15.60;99.90;;;;;;5045359;28;20047;-72